Time;durP1;ratioP1;P1;durP2;ratioP2;P2;SDS_P1;SDS_P2;PMS_P1;PMS_P2;Temp;Humidity;BMP_temperature;BMP_pressure;BME280_temperature;BME280_humidity;BME280_pressure;Samples;Min_cycle;Max_cycle;Signal;HPM_P1;HPM_P2
2022/04/13 00:00:27;;;;;;;8.40;4.93;;;7.20;89.40;7.10;100696.00;;;;4879287;28;88084;-67
2022/04/13 00:02:53;;;;;;;5.60;3.57;;;7.20;90.10;7.10;100698.00;;;;4859877;28;89045;-68
2022/04/13 00:05:19;;;;;;;10.60;4.73;;;7.20;90.70;7.10;100696.00;;;;4877082;28;108293;-67
2022/04/13 00:07:45;;;;;;;6.10;4.23;;;7.20;90.50;7.10;100697.00;;;;4879379;28;87932;-66
2022/04/13 00:10:11;;;;;;;5.87;4.13;;;7.20;90.80;7.10;100693.00;;;;4878974;28;107886;-66
2022/04/13 00:12:37;;;;;;;7.07;4.37;;;7.20;90.60;7.00;100685.00;;;;4877414;28;102783;-66
2022/04/13 00:15:05;;;;;;;6.43;4.47;;;7.20;91.00;7.00;100691.00;;;;4879272;28;88602;-67
2022/04/13 00:17:32;;;;;;;9.57;3.87;;;7.10;91.50;7.00;100687.00;;;;4878871;28;87987;-67
2022/04/13 00:19:58;;;;;;;5.43;4.10;;;7.10;91.80;6.90;100696.00;;;;4869650;28;99342;-67
2022/04/13 00:22:24;;;;;;;5.00;4.07;;;7.00;91.50;6.90;100691.00;;;;4877461;28;117892;-67
2022/04/13 00:24:50;;;;;;;8.80;4.40;;;7.10;91.90;6.90;100676.00;;;;4878352;28;116943;-67
2022/04/13 00:27:16;;;;;;;7.27;3.97;;;7.50;91.90;6.80;100689.00;;;;4878522;28;87722;-67
2022/04/13 00:29:42;;;;;;;5.60;4.27;;;6.90;92.00;6.80;100687.00;;;;4878695;28;109368;-67
2022/04/13 00:32:08;;;;;;;8.97;4.57;;;6.90;92.30;6.80;100687.00;;;;4878489;28;88987;-67
2022/04/13 00:34:34;;;;;;;8.77;4.50;;;6.90;92.50;6.70;100689.00;;;;4879439;28;88935;-67
2022/04/13 00:37:00;;;;;;;5.47;4.00;;;7.30;92.70;6.70;100676.00;;;;4875980;28;103528;-67
2022/04/13 00:39:26;;;;;;;6.90;4.67;;;7.20;93.10;6.70;100672.00;;;;4868677;28;93906;-67
2022/04/13 00:41:57;;;;;;;6.23;3.77;;;6.80;94.00;6.70;100676.00;;;;4858659;28;109474;-67
2022/04/13 00:44:23;;;;;;;5.00;4.13;;;6.80;94.10;6.70;100675.00;;;;4859834;28;88275;-68
2022/04/13 00:46:49;;;;;;;8.17;4.90;;;7.10;94.30;6.60;100676.00;;;;4866422;28;110250;-67
2022/04/13 00:49:15;;;;;;;8.77;4.10;;;6.70;94.60;6.60;100683.00;;;;4860597;28;87814;-68
2022/04/13 00:51:40;;;;;;;5.93;4.33;;;6.70;94.70;6.60;100676.00;;;;4877755;28;116704;-68
2022/04/13 00:54:08;;;;;;;6.60;3.90;;;6.70;94.80;6.50;100665.00;;;;4877914;28;116826;-68
2022/04/13 00:56:40;;;;;;;5.97;4.07;;;6.70;94.90;6.50;100670.00;;;;4849407;28;104712;-68
2022/04/13 00:59:10;;;;;;;7.63;5.23;;;6.60;95.40;6.50;100659.00;;;;4859484;28;87806;-66
2022/04/13 01:01:37;;;;;;;5.53;4.17;;;6.60;95.70;6.50;100661.00;;;;4860598;28;88401;-66
2022/04/13 01:04:04;;;;;;;4.93;3.93;;;6.80;95.70;6.40;100663.00;;;;4859357;28;107568;-66
2022/04/13 01:06:31;;;;;;;5.63;4.60;;;6.60;95.90;6.40;100671.00;;;;4864811;28;99545;-67
2022/04/13 01:08:58;;;;;;;5.37;3.80;;;6.50;95.90;6.30;100655.00;;;;4856791;28;88688;-66
2022/04/13 01:11:27;;;;;;;8.97;4.80;;;6.50;96.00;6.30;100670.00;;;;4864726;28;107628;-66
2022/04/13 01:13:54;;;;;;;5.97;4.33;;;6.40;96.50;6.30;100672.00;;;;4875629;28;89608;-67
2022/04/13 01:16:21;;;;;;;8.57;4.60;;;6.40;97.10;6.30;100670.00;;;;4860485;28;87915;-66
2022/04/13 01:18:47;;;;;;;7.03;4.50;;;6.60;97.40;6.20;100664.00;;;;4876197;28;87731;-66
2022/04/13 01:21:15;;;;;;;5.67;3.30;;;6.70;97.10;6.20;100676.00;;;;4864643;28;118628;-67
2022/04/13 01:23:41;;;;;;;6.93;5.00;;;6.70;97.00;6.10;100671.00;;;;4877789;28;88927;-66
2022/04/13 01:26:10;;;;;;;7.50;4.10;;;6.60;97.00;6.10;100670.00;;;;4873774;28;108766;-66
2022/04/13 01:28:37;;;;;;;6.57;4.03;;;6.30;97.00;6.10;100663.00;;;;4877920;28;95209;-66
2022/04/13 01:31:04;;;;;;;6.83;3.97;;;6.30;97.00;6.10;100676.00;;;;4875009;28;88088;-66
2022/04/13 01:33:29;;;;;;;7.73;4.20;;;6.20;97.20;6.00;100670.00;;;;4858210;28;108473;-66
2022/04/13 01:36:00;;;;;;;5.93;4.33;;;6.50;97.70;6.00;100674.00;;;;4860039;28;88723;-66
2022/04/13 01:38:30;;;;;;;9.23;4.57;;;6.60;97.90;6.00;100670.00;;;;4859221;28;87737;-67
2022/04/13 01:40:57;;;;;;;7.33;3.90;;;6.60;97.80;6.00;100674.00;;;;4858625;28;109483;-66
2022/04/13 01:43:23;;;;;;;5.50;4.50;;;6.20;98.00;5.90;100668.00;;;;4857834;28;95372;-66
2022/04/13 01:45:50;;;;;;;7.33;5.10;;;6.30;98.00;5.90;100674.00;;;;4865770;28;88169;-67
2022/04/13 01:48:18;;;;;;;9.20;5.23;;;6.10;98.10;5.90;100674.00;;;;4877672;28;87761;-66
2022/04/13 01:50:44;;;;;;;6.53;4.10;;;6.40;98.30;5.80;100674.00;;;;4859854;28;88352;-66
2022/04/13 01:53:10;;;;;;;5.47;4.80;;;6.00;98.20;5.80;100675.00;;;;4877994;28;88608;-66
2022/04/13 01:55:36;;;;;;;7.83;4.13;;;5.90;98.20;5.80;100689.00;;;;4877314;28;95480;-66
2022/04/13 01:58:01;;;;;;;9.30;5.70;;;5.90;98.40;5.80;100681.00;;;;4876762;28;107908;-67
2022/04/13 02:00:28;;;;;;;7.90;3.70;;;5.90;98.50;5.70;100687.00;;;;4876136;28;118853;-66
2022/04/13 02:02:53;;;;;;;7.50;4.33;;;5.90;98.60;5.70;100681.00;;;;4876201;28;110755;-66
2022/04/13 02:05:19;;;;;;;7.63;4.90;;;5.80;99.00;5.70;100675.00;;;;4876675;28;99044;-67
2022/04/13 02:07:45;;;;;;;4.73;3.87;;;6.00;99.00;5.70;100684.00;;;;4860125;28;88095;-67
2022/04/13 02:10:11;;;;;;;8.27;4.80;;;5.80;99.00;5.70;100673.00;;;;4856824;28;116829;-66
2022/04/13 02:12:37;;;;;;;6.23;4.40;;;5.80;99.20;5.60;100668.00;;;;4857978;28;97126;-67
2022/04/13 02:15:06;;;;;;;7.20;4.33;;;5.80;99.30;5.60;100673.00;;;;4858782;28;87648;-67
2022/04/13 02:17:32;;;;;;;5.03;4.47;;;6.20;99.40;5.50;100668.00;;;;4860337;28;87369;-67
2022/04/13 02:19:58;;;;;;;6.80;4.60;;;5.70;99.50;5.50;100666.00;;;;4869226;28;117219;-66
2022/04/13 02:22:24;;;;;;;5.10;3.87;;;6.00;99.90;5.50;100673.00;;;;4879754;28;117470;-66
2022/04/13 02:24:50;;;;;;;5.83;4.60;;;6.20;99.90;5.40;100672.00;;;;4880472;28;88848;-66
2022/04/13 02:27:15;;;;;;;5.40;4.00;;;5.60;99.90;5.40;100667.00;;;;4877364;28;88009;-66
2022/04/13 02:29:44;;;;;;;9.00;4.43;;;5.50;99.90;5.40;100669.00;;;;4873244;28;117096;-67
2022/04/13 02:32:10;;;;;;;6.47;4.20;;;5.50;99.90;5.30;100680.00;;;;4868477;28;87831;-67
2022/04/13 02:34:36;;;;;;;5.87;4.43;;;5.90;99.90;5.30;100673.00;;;;4862679;28;91460;-66
2022/04/13 02:37:02;;;;;;;7.50;4.80;;;5.70;99.90;5.30;100671.00;;;;4872737;28;87882;-66
2022/04/13 02:39:28;;;;;;;6.97;5.20;;;5.50;99.90;5.20;100674.00;;;;4880218;28;100866;-66
2022/04/13 02:41:54;;;;;;;8.73;4.70;;;5.40;99.90;5.20;100677.00;;;;4878684;28;117811;-66
2022/04/13 02:44:19;;;;;;;6.10;4.00;;;5.40;99.90;5.20;100668.00;;;;4880546;28;109784;-66
2022/04/13 02:46:45;;;;;;;8.87;4.63;;;5.40;99.90;5.20;100672.00;;;;4870915;28;108062;-66
2022/04/13 02:49:11;;;;;;;6.13;5.20;;;5.40;99.90;5.20;100664.00;;;;4860657;28;90577;-66
2022/04/13 02:51:38;;;;;;;7.23;4.13;;;5.40;99.90;5.20;100661.00;;;;4860667;28;95717;-66
2022/04/13 02:54:04;;;;;;;5.80;5.10;;;5.30;99.90;5.20;100665.00;;;;4868755;28;99646;-66
2022/04/13 02:56:30;;;;;;;5.30;3.90;;;5.30;99.90;5.20;100666.00;;;;4879686;28;102176;-66
2022/04/13 02:58:56;;;;;;;7.57;4.80;;;5.10;99.90;5.20;100662.00;;;;4878936;28;117197;-67
2022/04/13 03:01:21;;;;;;;8.17;4.93;;;5.30;99.90;5.20;100657.00;;;;4855811;28;116942;-67
2022/04/13 03:03:47;;;;;;;8.33;4.33;;;5.40;99.90;5.10;100660.00;;;;4861439;28;87648;-67
2022/04/13 03:06:13;;;;;;;7.70;4.80;;;5.30;99.90;5.10;100671.00;;;;4865364;28;102006;-67
2022/04/13 03:08:38;;;;;;;5.47;4.10;;;5.30;99.90;5.10;100657.00;;;;4878769;28;115751;-68
2022/04/13 03:11:04;;;;;;;4.90;4.13;;;5.20;99.90;5.10;100667.00;;;;4844518;28;88095;-67
2022/04/13 03:13:30;;;;;;;10.93;4.60;;;5.20;99.90;5.00;100661.00;;;;4859629;28;102955;-67
2022/04/13 03:15:56;;;;;;;5.30;4.67;;;5.40;99.90;5.00;100655.00;;;;4866288;28;87987;-67
2022/04/13 03:18:21;;;;;;;7.43;4.93;;;5.30;99.90;5.00;100654.00;;;;4878943;28;118180;-67
2022/04/13 03:20:47;;;;;;;7.93;4.60;;;5.30;99.90;4.90;100655.00;;;;4878382;28;117284;-67
2022/04/13 03:23:13;;;;;;;8.30;4.30;;;5.50;99.90;4.90;100642.00;;;;4880119;28;87710;-67
2022/04/13 03:25:38;;;;;;;8.30;5.30;;;5.20;99.90;4.90;100643.00;;;;4879042;28;108240;-67
2022/04/13 03:28:04;;;;;;;8.63;4.97;;;5.30;99.90;4.90;100655.00;;;;4871918;28;117648;-67
2022/04/13 03:30:30;;;;;;;6.27;3.93;;;5.60;99.90;4.80;100647.00;;;;4860216;28;118458;-68
2022/04/13 03:32:55;;;;;;;10.37;5.73;;;5.00;99.90;4.80;100637.00;;;;4859629;28;108760;-67
2022/04/13 03:35:22;;;;;;;9.40;5.20;;;5.00;99.90;4.80;100640.00;;;;4860739;28;99085;-67
2022/04/13 03:37:48;;;;;;;7.83;4.77;;;4.90;99.90;4.70;100634.00;;;;4875739;28;90103;-67
2022/04/13 03:40:14;;;;;;;9.53;6.13;;;4.90;99.90;4.70;100643.00;;;;4879225;28;117688;-67
2022/04/13 03:42:41;;;;;;;5.93;4.33;;;4.90;99.90;4.70;100643.00;;;;4877174;28;105315;-67
2022/04/13 03:45:13;;;;;;;7.70;5.00;;;5.40;99.90;4.70;100633.00;;;;4880021;28;87866;-67
2022/04/13 03:47:40;;;;;;;6.97;4.93;;;4.90;99.90;4.70;100627.00;;;;4879503;28;89150;-67
2022/04/13 03:50:07;;;;;;;7.13;4.10;;;4.80;99.90;4.60;100623.00;;;;4879616;28;87931;-67
2022/04/13 03:52:35;;;;;;;6.37;3.87;;;4.80;99.90;4.60;100624.00;;;;4863592;28;97191;-67
2022/04/13 03:55:04;;;;;;;8.23;4.80;;;4.80;99.90;4.60;100632.00;;;;4877369;28;87685;-67
2022/04/13 03:57:30;;;;;;;6.13;4.43;;;4.80;99.90;4.60;100637.00;;;;4879207;28;88836;-67
2022/04/13 03:59:56;;;;;;;8.53;5.43;;;4.80;99.90;4.60;100625.00;;;;4878878;28;103862;-67
2022/04/13 04:02:22;;;;;;;7.03;5.07;;;4.80;99.90;4.60;100629.00;;;;4860997;28;88802;-67
2022/04/13 04:04:48;;;;;;;9.77;5.30;;;4.70;99.90;4.60;100642.00;;;;4876800;28;110040;-68
2022/04/13 04:07:14;;;;;;;10.47;5.63;;;4.80;99.90;4.60;100645.00;;;;4872374;28;88330;-67
2022/04/13 04:09:40;;;;;;;5.30;4.77;;;4.70;99.90;4.60;100631.00;;;;4879962;28;88063;-68
2022/04/13 04:12:06;;;;;;;8.13;4.73;;;4.80;99.90;4.60;100643.00;;;;4877502;28;108414;-68
2022/04/13 04:14:32;;;;;;;7.77;4.90;;;4.70;99.90;4.60;100645.00;;;;4878677;28;101369;-68
2022/04/13 04:16:57;;;;;;;7.93;5.17;;;4.70;99.90;4.60;100649.00;;;;4873901;28;88692;-68
2022/04/13 04:19:23;;;;;;;9.80;5.57;;;4.70;99.90;4.60;100657.00;;;;4862110;28;116992;-68
2022/04/13 04:21:49;;;;;;;11.67;6.43;;;5.20;99.90;4.60;100648.00;;;;4878470;28;101334;-68
2022/04/13 04:24:14;;;;;;;13.80;5.87;;;4.70;99.90;4.50;100669.00;;;;4877265;28;108884;-68
2022/04/13 04:26:40;;;;;;;12.43;8.63;;;4.70;99.90;4.60;100655.00;;;;4864050;28;119070;-68
2022/04/13 04:29:06;;;;;;;10.47;7.03;;;4.70;99.90;4.60;100657.00;;;;4860824;28;117886;-68
2022/04/13 04:31:50;;;;;;;15.23;7.87;;;4.70;99.90;4.60;100656.00;;;;4871495;28;88209;-68
2022/04/13 04:34:17;;;;;;;10.97;6.23;;;4.70;99.90;4.60;100670.00;;;;4860076;28;87782;-68
2022/04/13 04:36:44;;;;;;;13.40;6.33;;;5.30;99.90;4.60;100663.00;;;;4858773;28;88110;-68
2022/04/13 04:39:10;;;;;;;12.47;6.60;;;4.80;99.90;4.60;100667.00;;;;4859993;28;87770;-68
2022/04/13 04:41:36;;;;;;;9.60;5.57;;;4.80;99.90;4.60;100668.00;;;;4865711;28;98691;-68
2022/04/13 04:44:02;;;;;;;11.97;6.70;;;4.80;99.90;4.70;100655.00;;;;4862768;28;88218;-67
2022/04/13 04:46:28;;;;;;;9.90;5.80;;;4.70;99.90;4.70;100666.00;;;;4860063;28;88699;-68
2022/04/13 04:48:54;;;;;;;15.93;6.37;;;4.80;99.90;4.70;100664.00;;;;4858194;28;118778;-68
2022/04/13 04:51:20;;;;;;;7.73;5.33;;;5.40;99.90;4.80;100668.00;;;;4859129;28;101019;-68
2022/04/13 04:53:49;;;;;;;7.23;5.10;;;4.80;99.90;4.80;100657.00;;;;4867409;28;108144;-68
2022/04/13 04:56:15;;;;;;;7.57;4.60;;;4.90;99.90;4.90;100662.00;;;;4860785;28;87938;-68
2022/04/13 04:58:41;;;;;;;7.17;5.00;;;5.00;99.90;4.90;100658.00;;;;4878299;28;87878;-68
2022/04/13 05:01:07;;;;;;;10.07;5.60;;;5.00;99.90;4.90;100673.00;;;;4868419;28;110079;-68
2022/04/13 05:03:33;;;;;;;13.67;5.10;;;5.10;99.90;5.00;100670.00;;;;4877451;28;109953;-68
2022/04/13 05:05:59;;;;;;;7.30;5.07;;;5.10;99.90;5.10;100660.00;;;;4875602;28;89220;-68
2022/04/13 05:08:25;;;;;;;7.57;5.73;;;5.10;99.90;5.10;100667.00;;;;4873499;28;116950;-68
2022/04/13 05:10:53;;;;;;;11.10;6.17;;;5.20;99.90;5.20;100671.00;;;;4874022;28;87749;-69
2022/04/13 05:13:20;;;;;;;9.93;5.67;;;5.30;99.90;5.30;100671.00;;;;4874609;28;87792;-68
2022/04/13 05:15:47;;;;;;;6.57;4.97;;;5.30;99.90;5.40;100675.00;;;;4871047;28;97002;-68
2022/04/13 05:18:13;;;;;;;9.07;6.10;;;5.60;99.90;5.50;100675.00;;;;4880613;28;108388;-68
2022/04/13 05:20:42;;;;;;;9.13;4.87;;;5.50;99.90;5.70;100677.00;;;;4872610;28;93587;-68
2022/04/13 05:23:07;;;;;;;7.33;4.43;;;6.00;99.90;5.80;100693.00;;;;4873340;28;108667;-68
2022/04/13 05:25:33;;;;;;;9.40;4.47;;;5.90;99.90;6.00;100696.00;;;;4874288;28;91417;-67
2022/04/13 05:27:59;;;;;;;6.50;4.27;;;6.00;99.90;6.10;100686.00;;;;4872874;28;115282;-67
2022/04/13 05:30:24;;;;;;;6.07;4.33;;;6.50;99.90;6.30;100682.00;;;;4874763;28;87967;-67
2022/04/13 05:32:57;;;;;;;6.30;4.43;;;6.80;99.90;6.40;100683.00;;;;4873838;28;108598;-68
2022/04/13 05:35:25;;;;;;;8.57;4.70;;;6.40;99.90;6.60;100690.00;;;;4857595;28;88379;-68
2022/04/13 05:37:52;;;;;;;9.67;4.43;;;6.60;99.90;6.70;100691.00;;;;4874748;28;87975;-68
2022/04/13 05:40:18;;;;;;;7.37;3.90;;;6.70;99.90;6.80;100705.00;;;;4851374;28;88804;-68
2022/04/13 05:42:44;;;;;;;6.90;3.90;;;6.80;99.90;7.00;100699.00;;;;4872822;28;87754;-68
2022/04/13 05:45:10;;;;;;;3.77;3.33;;;7.10;99.90;7.10;100696.00;;;;4873298;28;117639;-67
2022/04/13 05:47:38;;;;;;;7.03;3.93;;;7.10;99.90;7.20;100688.00;;;;4872561;28;88778;-68
2022/04/13 05:50:05;;;;;;;7.10;4.93;;;7.20;99.90;7.40;100680.00;;;;4870131;28;87846;-67
2022/04/13 05:52:31;;;;;;;6.40;4.60;;;7.40;99.90;7.60;100685.00;;;;4873554;28;87868;-68
2022/04/13 05:54:57;;;;;;;6.30;3.60;;;7.60;99.90;7.70;100679.00;;;;4855541;28;118088;-68
2022/04/13 05:57:22;;;;;;;7.30;3.77;;;7.60;99.90;7.80;100690.00;;;;4874048;28;88710;-68
2022/04/13 05:59:48;;;;;;;6.97;4.67;;;7.70;99.90;7.90;100691.00;;;;4873403;28;108711;-68
2022/04/13 06:02:14;;;;;;;6.87;3.97;;;7.90;99.90;8.00;100693.00;;;;4839167;28;107307;-67
2022/04/13 06:04:40;;;;;;;7.20;4.10;;;8.00;99.80;8.10;100698.00;;;;4873924;28;89724;-68
2022/04/13 06:07:05;;;;;;;10.03;4.80;;;8.10;99.80;8.30;100700.00;;;;4868180;28;117319;-68
2022/04/13 06:09:31;;;;;;;6.37;4.07;;;8.30;99.60;8.50;100701.00;;;;4872893;28;110056;-67
2022/04/13 06:11:57;;;;;;;6.60;4.37;;;8.50;99.40;8.70;100701.00;;;;4872313;28;87840;-68
2022/04/13 06:14:22;;;;;;;4.57;3.27;;;8.70;99.00;8.90;100708.00;;;;4872880;28;116583;-68
2022/04/13 06:16:48;;;;;;;10.50;4.50;;;8.90;98.70;9.20;100700.00;;;;4870702;28;116607;-68
2022/04/13 06:19:14;;;;;;;5.87;3.77;;;9.10;98.10;9.40;100714.00;;;;4873914;28;88703;-67
2022/04/13 06:21:39;;;;;;;7.53;4.90;;;9.30;97.30;9.70;100707.00;;;;4873771;28;107602;-68
2022/04/13 06:24:05;;;;;;;6.97;4.23;;;9.50;96.50;9.90;100702.00;;;;4872718;28;111113;-68
2022/04/13 06:26:31;;;;;;;10.50;4.60;;;9.80;96.20;10.20;100708.00;;;;4870215;28;92855;-67
2022/04/13 06:28:57;;;;;;;7.57;3.97;;;10.10;95.40;10.50;100712.00;;;;4869898;28;110412;-68
2022/04/13 06:31:22;;;;;;;5.03;3.73;;;10.40;94.80;10.80;100715.00;;;;4871782;28;108717;-68
2022/04/13 06:33:52;;;;;;;4.17;3.60;;;10.60;93.70;11.00;100706.00;;;;4872113;28;120187;-68
2022/04/13 06:36:18;;;;;;;5.33;3.63;;;10.90;93.00;11.30;100706.00;;;;4873737;28;87976;-68
2022/04/13 06:38:44;;;;;;;3.87;3.40;;;11.20;92.30;11.50;100715.00;;;;4872878;28;102207;-68
2022/04/13 06:41:11;;;;;;;9.70;4.30;;;11.40;91.10;11.80;100707.00;;;;4873665;28;99546;-68
2022/04/13 06:43:38;;;;;;;3.73;3.07;;;11.60;90.60;12.00;100723.00;;;;4872192;28;106072;-68
2022/04/13 06:46:03;;;;;;;5.17;3.17;;;11.80;89.00;12.30;100718.00;;;;4867527;28;106058;-68
2022/04/13 06:48:29;;;;;;;4.20;3.17;;;12.10;87.70;12.50;100730.00;;;;4871258;28;87927;-68
2022/04/13 06:50:54;;;;;;;5.90;3.57;;;12.40;86.80;12.80;100723.00;;;;4872743;28;109441;-68
2022/04/13 06:53:21;;;;;;;7.30;3.73;;;12.60;83.40;13.00;100733.00;;;;4870250;28;114838;-68
2022/04/13 06:55:48;;;;;;;5.00;3.67;;;12.80;82.30;13.20;100736.00;;;;4850240;28;94310;-68
2022/04/13 06:58:18;;;;;;;4.53;3.23;;;13.10;81.20;13.50;100736.00;;;;4872959;28;87952;-68
2022/04/13 07:00:44;;;;;;;6.53;3.70;;;13.30;80.30;13.70;100732.00;;;;4872890;28;88221;-68
2022/04/13 07:03:10;;;;;;;5.97;3.80;;;13.60;78.80;14.00;100732.00;;;;4869689;28;89632;-73
2022/04/13 07:05:36;;;;;;;6.63;3.93;;;13.80;76.60;14.20;100726.00;;;;4876195;28;88011;-74
2022/04/13 07:08:02;;;;;;;5.30;3.37;;;14.00;75.50;14.40;100734.00;;;;4875331;28;92368;-73
2022/04/13 07:10:30;;;;;;;5.37;2.90;;;14.20;75.00;14.70;100737.00;;;;4876628;28;86915;-72
2022/04/13 07:12:56;;;;;;;4.87;4.00;;;14.50;74.00;15.00;100742.00;;;;4871783;28;88533;-73
2022/04/13 07:15:22;;;;;;;5.18;3.30;;;14.80;72.30;15.30;100736.00;;;;4876507;28;87794;-73
2022/04/13 07:17:48;;;;;;;8.60;3.65;;;15.10;70.10;15.50;100732.00;;;;4853531;28;92863;-73
2022/04/13 07:20:15;;;;;;;4.20;2.95;;;15.30;66.60;15.70;100737.00;;;;4857740;28;108899;-73
2022/04/13 07:22:50;;;;;;;7.88;3.13;;;15.50;64.90;15.90;100732.00;;;;4875537;28;89012;-70
2022/04/13 07:25:18;;;;;;;4.35;3.08;;;15.70;63.50;16.10;100724.00;;;;4876283;28;88229;-70
2022/04/13 07:27:45;;;;;;;2.88;2.58;;;15.90;63.40;16.40;100734.00;;;;4854376;28;102971;-72
2022/04/13 07:30:12;;;;;;;8.85;3.22;;;16.20;62.60;16.70;100733.00;;;;4857903;28;100593;-72
2022/04/13 07:32:37;;;;;;;4.30;2.90;;;16.40;59.00;16.90;100737.00;;;;4875445;28;88167;-71
2022/04/13 07:35:04;;;;;;;5.78;3.33;;;16.60;55.60;17.00;100735.00;;;;4875754;28;117592;-72
2022/04/13 07:37:31;;;;;;;4.13;3.67;;;16.80;53.50;17.10;100742.00;;;;4871010;28;101789;-72
2022/04/13 07:39:57;;;;;;;4.55;3.22;;;16.90;52.40;17.30;100733.00;;;;4876696;28;87755;-71
2022/04/13 07:42:25;;;;;;;2.65;2.28;;;17.10;51.30;17.40;100738.00;;;;4874748;28;107997;-72
2022/04/13 07:44:52;;;;;;;6.32;3.20;;;17.20;50.20;17.50;100741.00;;;;4875649;28;89365;-72
2022/04/13 07:47:19;;;;;;;4.57;3.28;;;17.30;48.00;17.40;100749.00;;;;4872043;28;98530;-72
2022/04/13 07:49:45;;;;;;;5.85;3.58;;;17.30;48.50;17.50;100754.00;;;;4876770;28;87802;-71
2022/04/13 07:52:11;;;;;;;8.23;3.97;;;17.40;49.10;17.70;100750.00;;;;4874313;28;88329;-71
2022/04/13 07:54:37;;;;;;;8.32;4.00;;;17.50;49.60;17.90;100754.00;;;;4870899;28;118064;-71
2022/04/13 07:57:03;;;;;;;6.63;4.10;;;17.70;48.30;18.00;100761.00;;;;4874466;28;111015;-72
2022/04/13 07:59:29;;;;;;;5.78;3.17;;;17.70;47.80;18.10;100750.00;;;;4875946;28;98961;-72
2022/04/13 08:01:54;;;;;;;3.95;3.13;;;17.90;47.50;18.20;100751.00;;;;4873748;28;117308;-71
2022/04/13 08:04:20;;;;;;;4.40;3.15;;;18.10;47.10;18.30;100750.00;;;;4876244;28;88013;-72
2022/04/13 08:06:46;;;;;;;5.63;2.28;;;18.10;46.20;18.40;100756.00;;;;4868721;28;90956;-72
2022/04/13 08:09:13;;;;;;;6.05;3.38;;;18.20;45.70;18.40;100752.00;;;;4874834;28;108403;-71
2022/04/13 08:11:39;;;;;;;6.28;3.10;;;18.20;45.60;18.40;100756.00;;;;4871416;28;119284;-71
2022/04/13 08:14:05;;;;;;;6.07;2.80;;;18.30;46.20;18.60;100759.00;;;;4873042;28;116738;-73
2022/04/13 08:16:30;;;;;;;4.85;3.20;;;18.40;46.30;18.80;100762.00;;;;4870631;28;88029;-71
2022/04/13 08:18:56;;;;;;;4.03;2.47;;;18.50;45.60;18.90;100752.00;;;;4856951;28;109085;-71
2022/04/13 08:21:22;;;;;;;7.60;3.17;;;18.70;45.30;19.10;100757.00;;;;4874156;28;114836;-72
2022/04/13 08:23:47;;;;;;;7.53;2.92;;;18.90;45.00;19.20;100757.00;;;;4874450;28;95661;-71
2022/04/13 08:26:13;;;;;;;3.72;2.05;;;19.00;44.40;19.30;100764.00;;;;4874078;28;101545;-72
2022/04/13 08:28:39;;;;;;;6.43;2.90;;;19.20;43.50;19.40;100758.00;;;;4875156;28;87698;-72
2022/04/13 08:31:07;;;;;;;3.92;2.30;;;19.20;43.90;19.60;100755.00;;;;4872994;28;118470;-72
2022/04/13 08:33:33;;;;;;;6.93;3.13;;;19.40;43.60;19.80;100765.00;;;;4873969;28;89647;-72
2022/04/13 08:35:59;;;;;;;3.90;2.63;;;19.50;43.70;19.90;100757.00;;;;4875308;28;94783;-71
2022/04/13 08:38:24;;;;;;;5.50;3.15;;;19.70;43.50;20.10;100759.00;;;;4874905;28;87887;-72
2022/04/13 08:41:02;;;;;;;4.43;2.35;;;19.80;43.40;20.30;100765.00;;;;4874053;28;118905;-71
2022/04/13 08:43:51;;;;;;;3.90;2.53;;;20.00;44.00;20.60;100765.00;;;;4874580;28;88061;-70
2022/04/13 08:46:24;;;;;;;4.82;2.88;;;20.30;42.70;20.70;100770.00;;;;4875562;28;87722;-71
2022/04/13 08:48:56;;;;;;;5.95;2.95;;;20.50;42.00;20.80;100767.00;;;;4875323;28;87041;-72
2022/04/13 08:51:24;;;;;;;5.15;2.55;;;20.70;41.30;20.80;100773.00;;;;4857938;28;88050;-72
2022/04/13 08:54:09;;;;;;;2.67;2.10;;;20.60;40.00;20.70;100772.00;;;;4873781;28;88844;-71
2022/04/13 08:56:35;;;;;;;5.85;2.47;;;20.50;39.10;20.70;100777.00;;;;4840802;28;101541;-71
2022/04/13 08:59:14;;;;;;;3.53;2.75;;;20.50;39.40;20.60;100772.00;;;;4874492;28;108241;-71
2022/04/13 09:02:02;;;;;;;3.30;2.45;;;20.40;40.00;20.70;100774.00;;;;4856447;28;107703;-71
2022/04/13 09:04:31;;;;;;;6.28;2.25;;;20.50;39.20;20.60;100766.00;;;;4841106;28;89651;-71
2022/04/13 09:07:00;;;;;;;6.15;3.22;;;20.40;39.80;20.80;100764.00;;;;4855685;28;110755;-71
2022/04/13 09:09:34;;;;;;;6.32;3.08;;;20.50;40.60;21.00;100764.00;;;;4857714;28;87921;-71
2022/04/13 09:12:02;;;;;;;3.78;2.95;;;20.70;41.20;21.30;100765.00;;;;4855930;28;108663;-70
2022/04/13 09:14:29;;;;;;;7.03;2.63;;;20.90;40.90;21.60;100772.00;;;;4874287;28;109373;-72
2022/04/13 09:16:56;;;;;;;6.25;2.63;;;21.20;40.50;21.80;100768.00;;;;4874711;28;87713;-71
2022/04/13 09:19:24;;;;;;;7.10;2.13;;;21.40;40.20;22.00;100773.00;;;;4874258;28;87876;-71
2022/04/13 09:21:51;;;;;;;3.58;2.50;;;21.60;38.50;22.00;100766.00;;;;4872555;28;109678;-72
2022/04/13 09:24:19;;;;;;;3.70;2.65;;;21.70;38.70;22.00;100767.00;;;;4874005;28;103003;-72
2022/04/13 09:26:46;;;;;;;4.63;2.47;;;21.70;38.20;22.00;100769.00;;;;4856496;28;87833;-72
2022/04/13 09:29:12;;;;;;;3.72;1.70;;;21.70;38.70;22.20;100778.00;;;;4874453;28;87709;-72
2022/04/13 09:31:39;;;;;;;4.13;2.15;;;21.80;38.90;22.40;100773.00;;;;4874641;28;88727;-70
2022/04/13 09:34:05;;;;;;;3.58;2.30;;;22.00;37.60;22.40;100770.00;;;;4853642;28;118884;-70
2022/04/13 09:36:32;;;;;;;6.40;2.60;;;22.10;37.40;22.50;100771.00;;;;4855867;28;87894;-71
2022/04/13 09:38:59;;;;;;;3.35;1.80;;;22.10;37.70;22.60;100764.00;;;;4873911;28;100226;-71
2022/04/13 09:41:36;;;;;;;2.80;2.47;;;22.20;38.00;22.80;100777.00;;;;4873630;28;117707;-71
2022/04/13 09:44:11;;;;;;;4.38;2.20;;;22.40;37.50;23.10;100773.00;;;;4855678;28;87730;-71
2022/04/13 09:46:37;;;;;;;5.80;3.10;;;22.60;37.20;23.10;100771.00;;;;4856364;28;88773;-72
2022/04/13 09:49:17;;;;;;;2.33;1.55;;;22.70;36.20;23.20;100769.00;;;;4874078;28;87854;-71
2022/04/13 09:51:50;;;;;;;2.65;2.00;;;22.80;35.90;23.30;100774.00;;;;4855715;28;88233;-72
2022/04/13 09:54:17;;;;;;;4.22;2.05;;;22.90;35.70;23.40;100779.00;;;;4869651;28;87924;-72
2022/04/13 09:56:47;;;;;;;3.58;1.50;;;23.10;34.90;23.40;100773.00;;;;4872433;28;87742;-72
2022/04/13 09:59:30;;;;;;;4.65;2.17;;;23.00;34.90;23.50;100773.00;;;;4855434;28;107390;-71
2022/04/13 10:01:57;;;;;;;2.10;1.85;;;23.10;35.00;23.70;100762.00;;;;4855782;28;88200;-71
2022/04/13 10:04:28;;;;;;;4.32;2.38;;;23.20;35.00;23.80;100770.00;;;;4840743;28;90130;-71
2022/04/13 10:06:55;;;;;;;2.60;1.77;;;23.30;35.30;24.10;100767.00;;;;4852489;28;87756;-72
2022/04/13 10:09:23;;;;;;;2.85;1.88;;;23.50;35.60;24.30;100769.00;;;;4874039;28;100576;-71
2022/04/13 10:12:01;;;;;;;5.07;2.35;;;23.70;34.70;24.30;100770.00;;;;4872687;28;89518;-71
2022/04/13 10:14:27;;;;;;;4.30;2.22;;;23.80;34.00;24.30;100771.00;;;;4856473;28;88056;-70
2022/04/13 10:16:56;;;;;;;4.18;1.85;;;23.80;34.10;24.30;100767.00;;;;4873065;28;87822;-70
2022/04/13 10:19:22;;;;;;;2.22;1.88;;;23.80;34.00;24.20;100774.00;;;;4874103;28;87751;-71
2022/04/13 10:21:51;;;;;;;1.50;1.40;;;23.80;33.10;24.20;100770.00;;;;4870899;28;117773;-70
2022/04/13 10:24:35;;;;;;;2.13;1.73;;;23.70;33.40;24.10;100758.00;;;;4869307;28;88212;-71
2022/04/13 10:27:15;;;;;;;5.20;2.50;;;23.70;33.10;24.10;100753.00;;;;4855830;28;87870;-71
2022/04/13 10:29:48;;;;;;;4.95;1.83;;;23.70;33.20;24.20;100763.00;;;;4874891;28;87316;-71
2022/04/13 10:32:17;;;;;;;3.47;2.22;;;23.70;33.50;24.40;100759.00;;;;4869855;28;88660;-72
2022/04/13 10:34:49;;;;;;;3.28;1.60;;;23.90;33.90;24.50;100767.00;;;;4873613;28;87868;-72
2022/04/13 10:37:18;;;;;;;3.08;1.92;;;24.00;33.90;24.60;100763.00;;;;4871089;28;88774;-73
2022/04/13 10:39:46;;;;;;;3.17;1.60;;;24.10;33.90;24.90;100764.00;;;;4876451;28;87925;-70
2022/04/13 10:42:17;;;;;;;5.20;2.30;;;24.30;33.80;25.20;100767.00;;;;4876291;28;89283;-71
2022/04/13 10:44:59;;;;;;;4.30;1.40;;;24.50;34.00;25.50;100766.00;;;;4876658;28;98002;-71
2022/04/13 10:47:57;;;;;;;2.10;1.95;;;24.80;34.10;25.80;100758.00;;;;4857649;28;101213;-71
2022/04/13 10:50:55;;;;;;;2.63;2.05;;;25.20;33.20;26.10;100761.00;;;;4873623;28;88015;-71
2022/04/13 10:53:25;;;;;;;2.75;1.70;;;25.50;33.80;26.40;100757.00;;;;4855278;28;87730;-72